createdAt,value
2023-06-04T00:00:27.893Z,100.00
2023-06-04T00:02:54.397Z,100.00
2023-06-04T00:05:22.652Z,100.00
2023-06-04T00:07:51.665Z,100.00
2023-06-04T00:10:18.360Z,100.00
2023-06-04T00:12:45.145Z,100.00
2023-06-04T00:15:11.854Z,100.00
2023-06-04T00:17:38.425Z,100.00
2023-06-04T00:20:05.253Z,100.00
2023-06-04T00:22:31.736Z,100.00
2023-06-04T00:24:58.084Z,100.00
2023-06-04T00:27:24.506Z,100.00
2023-06-04T00:29:52.319Z,100.00
2023-06-04T00:32:19.111Z,100.00
2023-06-04T00:34:52.384Z,100.00
2023-06-04T00:37:18.838Z,100.00
2023-06-04T00:39:45.201Z,100.00
2023-06-04T00:42:11.889Z,100.00
2023-06-04T00:44:38.338Z,100.00
2023-06-04T00:47:05.075Z,100.00
2023-06-04T00:49:31.623Z,100.00
2023-06-04T00:51:58.319Z,100.00
2023-06-04T00:54:25.505Z,100.00
2023-06-04T00:56:51.897Z,100.00
2023-06-04T00:59:18.518Z,100.00
2023-06-04T01:02:00.750Z,100.00
2023-06-04T01:04:33.772Z,100.00
2023-06-04T01:07:03.898Z,100.00
2023-06-04T01:09:31.769Z,100.00
2023-06-04T01:11:59.625Z,100.00
2023-06-04T01:14:27.196Z,100.00
2023-06-04T01:17:09.712Z,100.00
2023-06-04T01:20:00.824Z,100.00
2023-06-04T01:22:33.603Z,100.00
2023-06-04T01:25:05.624Z,100.00
2023-06-04T01:27:33.874Z,100.00
2023-06-04T01:30:01.548Z,100.00
2023-06-04T01:32:28.824Z,100.00
2023-06-04T01:34:55.423Z,100.00
2023-06-04T01:37:21.840Z,100.00
2023-06-04T01:39:48.427Z,100.00
2023-06-04T01:42:15.158Z,100.00
2023-06-04T01:44:42.209Z,100.00
2023-06-04T01:47:08.880Z,100.00
2023-06-04T01:49:35.450Z,100.00
2023-06-04T01:52:01.764Z,100.00
2023-06-04T01:54:28.514Z,100.00
2023-06-04T01:56:54.837Z,100.00
2023-06-04T01:59:22.270Z,100.00
2023-06-04T02:01:48.998Z,100.00
2023-06-04T02:04:15.365Z,100.00
2023-06-04T02:06:41.988Z,100.00
2023-06-04T02:09:08.344Z,100.00
2023-06-04T02:11:34.714Z,100.00
2023-06-04T02:14:01.247Z,100.00
2023-06-04T02:16:27.841Z,100.00
2023-06-04T02:18:54.312Z,100.00
2023-06-04T02:21:21.056Z,100.00
2023-06-04T02:23:47.629Z,100.00
2023-06-04T02:26:14.130Z,100.00
2023-06-04T02:28:40.848Z,100.00
2023-06-04T02:31:07.798Z,100.00
2023-06-04T02:33:34.374Z,100.00
2023-06-04T02:36:01.488Z,100.00
2023-06-04T02:38:28.002Z,100.00
2023-06-04T02:40:54.342Z,100.00
2023-06-04T02:43:20.980Z,100.00
2023-06-04T02:45:47.461Z,100.00
2023-06-04T02:48:14.042Z,100.00
2023-06-04T02:50:43.554Z,100.00
2023-06-04T02:53:09.929Z,100.00
2023-06-04T02:55:37.066Z,100.00
2023-06-04T02:58:03.887Z,100.00
2023-06-04T03:00:30.407Z,100.00
2023-06-04T03:03:03.080Z,100.00
2023-06-04T03:05:33.184Z,100.00
2023-06-04T03:08:03.353Z,100.00
2023-06-04T03:10:30.774Z,100.00
2023-06-04T03:12:57.342Z,100.00
2023-06-04T03:15:24.040Z,100.00
2023-06-04T03:17:52.711Z,100.00
2023-06-04T03:20:19.286Z,100.00
2023-06-04T03:22:45.762Z,100.00
2023-06-04T03:25:12.527Z,100.00
2023-06-04T03:27:39.162Z,100.00
2023-06-04T03:30:06.432Z,100.00
2023-06-04T03:32:33.638Z,100.00
2023-06-04T03:35:01.429Z,100.00
2023-06-04T03:37:28.181Z,100.00
2023-06-04T03:39:54.730Z,100.00
2023-06-04T03:42:21.446Z,100.00
2023-06-04T03:44:47.899Z,100.00
2023-06-04T03:47:14.388Z,100.00
2023-06-04T03:49:41.312Z,100.00
2023-06-04T03:52:07.635Z,100.00
2023-06-04T03:54:33.950Z,100.00
2023-06-04T03:57:01.341Z,100.00
2023-06-04T03:59:27.903Z,100.00
2023-06-04T04:01:54.331Z,100.00
2023-06-04T04:04:20.820Z,100.00
2023-06-04T04:06:47.214Z,100.00
2023-06-04T04:09:13.545Z,100.00
2023-06-04T04:11:40.527Z,100.00
2023-06-04T04:14:07.148Z,100.00
2023-06-04T04:16:33.590Z,100.00
2023-06-04T04:19:00.111Z,100.00
2023-06-04T04:21:26.521Z,100.00
2023-06-04T04:23:53.191Z,100.00
2023-06-04T04:26:19.927Z,100.00
2023-06-04T04:28:46.558Z,100.00
2023-06-04T04:31:13.189Z,100.00
2023-06-04T04:33:41.763Z,100.00
2023-06-04T04:36:13.936Z,100.00
2023-06-04T04:38:41.205Z,100.00
2023-06-04T04:41:09.480Z,100.00
2023-06-04T04:43:39.004Z,100.00
2023-06-04T04:46:06.532Z,100.00
2023-06-04T04:48:33.378Z,100.00
2023-06-04T04:51:00.378Z,100.00
2023-06-04T04:53:27.646Z,100.00
2023-06-04T04:55:54.297Z,100.00
2023-06-04T04:58:21.014Z,100.00
2023-06-04T05:00:48.911Z,100.00
2023-06-04T05:03:15.612Z,100.00
2023-06-04T05:05:42.103Z,100.00
2023-06-04T05:08:09.841Z,100.00
2023-06-04T05:10:37.358Z,100.00
2023-06-04T05:13:03.861Z,100.00
2023-06-04T05:15:30.665Z,100.00
2023-06-04T05:17:57.651Z,100.00
2023-06-04T05:20:24.397Z,100.00
2023-06-04T05:22:50.980Z,100.00
2023-06-04T05:25:17.708Z,100.00
2023-06-04T05:27:44.298Z,100.00
2023-06-04T05:30:12.157Z,100.00
2023-06-04T05:32:42.410Z,100.00
2023-06-04T05:35:09.839Z,100.00
2023-06-04T05:37:39.090Z,100.00
2023-06-04T05:40:06.602Z,100.00
2023-06-04T05:42:33.634Z,100.00
2023-06-04T05:45:00.270Z,100.00
2023-06-04T05:47:29.925Z,100.00
2023-06-04T05:49:57.179Z,100.00
2023-06-04T05:52:24.171Z,100.00
2023-06-04T05:54:51.152Z,100.00
2023-06-04T05:57:17.516Z,100.00
2023-06-04T05:59:44.196Z,100.00
2023-06-04T06:02:10.638Z,100.00
2023-06-04T06:04:37.557Z,100.00
2023-06-04T06:07:04.419Z,100.00
2023-06-04T06:09:30.883Z,100.00
2023-06-04T06:11:57.398Z,100.00
2023-06-04T06:14:25.091Z,100.00
2023-06-04T06:16:52.236Z,100.00
2023-06-04T06:19:19.742Z,100.00
2023-06-04T06:21:46.278Z,100.00
2023-06-04T06:24:15.262Z,100.00
2023-06-04T06:26:42.321Z,100.00
2023-06-04T06:29:08.645Z,100.00
2023-06-04T06:31:35.533Z,100.00
2023-06-04T06:34:01.969Z,100.00
2023-06-04T06:36:29.635Z,100.00
2023-06-04T06:38:56.328Z,100.00
2023-06-04T06:41:22.738Z,100.00
2023-06-04T06:43:49.460Z,100.00
2023-06-04T06:46:16.141Z,100.00
2023-06-04T06:48:46.598Z,100.00
2023-06-04T06:51:13.507Z,100.00
2023-06-04T06:53:40.532Z,100.00
2023-06-04T06:56:07.664Z,100.00
2023-06-04T06:58:34.061Z,100.00
2023-06-04T07:01:01.026Z,100.00
2023-06-04T07:03:27.524Z,100.00
2023-06-04T07:05:54.700Z,100.00
2023-06-04T07:08:22.246Z,100.00
2023-06-04T07:10:48.686Z,100.00
2023-06-04T07:13:15.328Z,100.00
2023-06-04T07:15:42.069Z,100.00
2023-06-04T07:18:08.995Z,100.00
2023-06-04T07:20:35.451Z,100.00
2023-06-04T07:23:02.446Z,100.00
2023-06-04T07:25:28.923Z,100.00
2023-06-04T07:27:59.204Z,100.00
2023-06-04T07:30:26.682Z,100.00
2023-06-04T07:32:53.941Z,100.00
2023-06-04T07:35:22.848Z,100.00
2023-06-04T07:37:50.533Z,100.00
2023-06-04T07:40:17.867Z,100.00
2023-06-04T07:42:50.925Z,100.00
2023-06-04T07:45:17.652Z,100.00
2023-06-04T07:47:45.005Z,100.00
2023-06-04T07:50:11.617Z,100.00
2023-06-04T07:52:38.558Z,100.00
2023-06-04T07:55:06.165Z,100.00
2023-06-04T07:57:33.063Z,100.00
2023-06-04T08:00:00.296Z,100.00
2023-06-04T08:02:27.109Z,100.00
2023-06-04T08:04:53.701Z,100.00
2023-06-04T08:07:20.202Z,100.00
2023-06-04T08:09:46.703Z,100.00
2023-06-04T08:12:13.150Z,100.00
2023-06-04T08:14:39.778Z,100.00
2023-06-04T08:17:06.141Z,100.00
2023-06-04T08:19:38.382Z,100.00
2023-06-04T08:22:05.064Z,100.00
2023-06-04T08:24:31.594Z,100.00
2023-06-04T08:26:57.970Z,100.00
2023-06-04T08:29:24.577Z,100.00
2023-06-04T08:31:51.645Z,100.00
2023-06-04T08:34:18.304Z,100.00
2023-06-04T08:36:45.290Z,100.00
2023-06-04T08:39:12.517Z,100.00
2023-06-04T08:41:50.301Z,100.00
2023-06-04T08:44:18.276Z,100.00
2023-06-04T08:46:45.903Z,100.00
2023-06-04T08:49:14.731Z,100.00
2023-06-04T08:51:41.779Z,100.00
2023-06-04T08:54:09.756Z,98.83
2023-06-04T08:56:37.448Z,96.91
2023-06-04T08:59:09.379Z,90.57
2023-06-04T09:01:39.416Z,83.78
2023-06-04T09:04:09.948Z,79.78
2023-06-04T09:06:40.027Z,83.50
2023-06-04T09:09:11.236Z,81.16
2023-06-04T09:11:45.825Z,87.07
2023-06-04T09:14:17.670Z,82.71
2023-06-04T09:16:52.114Z,79.75
2023-06-04T09:19:20.565Z,73.14
2023-06-04T09:21:52.575Z,77.33
2023-06-04T09:24:26.057Z,90.23
2023-06-04T09:26:53.048Z,82.66
2023-06-04T09:29:19.890Z,75.20
2023-06-04T09:31:48.675Z,78.05
2023-06-04T09:34:16.218Z,77.07
2023-06-04T09:36:43.045Z,78.40
2023-06-04T09:39:18.958Z,76.07
2023-06-04T09:41:57.449Z,72.41
2023-06-04T09:44:23.997Z,74.68
2023-06-04T09:46:57.722Z,66.53
2023-06-04T09:49:24.347Z,68.14
2023-06-04T09:51:51.700Z,65.35
2023-06-04T09:54:18.439Z,62.21
2023-06-04T09:56:45.005Z,64.15
2023-06-04T09:59:11.662Z,61.21
2023-06-04T10:01:42.639Z,59.59
2023-06-04T10:04:12.721Z,62.45
2023-06-04T10:06:40.430Z,61.61
2023-06-04T10:09:11.079Z,59.42
2023-06-04T10:11:57.915Z,62.00
2023-06-04T10:14:28.586Z,66.15
2023-06-04T10:16:58.011Z,61.23
2023-06-04T10:19:25.216Z,57.93
2023-06-04T10:21:51.750Z,56.18
2023-06-04T10:24:18.727Z,57.62
2023-06-04T10:26:45.247Z,57.24
2023-06-04T10:29:14.547Z,58.83
2023-06-04T10:31:42.431Z,58.63
2023-06-04T10:34:08.997Z,62.79
2023-06-04T10:36:44.962Z,62.55
2023-06-04T10:39:11.809Z,59.17
2023-06-04T10:41:38.384Z,58.71
2023-06-04T10:44:04.827Z,58.63
2023-06-04T10:46:42.103Z,58.41
2023-06-04T10:49:12.750Z,59.52
2023-06-04T10:51:39.121Z,60.07
2023-06-04T10:54:05.819Z,58.01
2023-06-04T10:56:36.069Z,57.93
2023-06-04T10:59:15.389Z,57.87
2023-06-04T11:01:41.934Z,55.41
2023-06-04T11:04:25.200Z,56.75
2023-06-04T11:07:04.695Z,54.38
2023-06-04T11:09:34.839Z,51.30
2023-06-04T11:12:01.919Z,55.61
2023-06-04T11:14:28.563Z,52.67
2023-06-04T11:16:55.116Z,51.01
2023-06-04T11:19:21.752Z,51.29
2023-06-04T11:21:49.196Z,52.96
2023-06-04T11:24:16.974Z,51.33
2023-06-04T11:26:48.258Z,53.33
2023-06-04T11:29:20.415Z,52.81
2023-06-04T11:31:48.903Z,50.68
2023-06-04T11:34:29.143Z,52.17
2023-06-04T11:36:56.036Z,53.49
2023-06-04T11:39:23.878Z,60.28
2023-06-04T11:41:52.249Z,54.56
2023-06-04T11:44:22.743Z,54.44
2023-06-04T11:46:50.035Z,53.58
2023-06-04T11:49:17.652Z,58.07
2023-06-04T11:51:51.630Z,55.58
2023-06-04T11:54:19.659Z,54.41
2023-06-04T11:56:47.447Z,52.29
2023-06-04T11:59:16.005Z,52.99
2023-06-04T12:01:44.508Z,54.68
2023-06-04T12:04:15.188Z,54.71
2023-06-04T12:07:03.548Z,53.16
2023-06-04T12:09:40.955Z,51.29
2023-06-04T12:12:08.781Z,52.18
2023-06-04T12:14:35.584Z,52.22
2023-06-04T12:17:07.033Z,53.75
2023-06-04T12:19:34.749Z,52.65
2023-06-04T12:22:08.456Z,51.27
2023-06-04T12:24:46.861Z,50.79
2023-06-04T12:27:13.739Z,50.61
2023-06-04T12:29:40.803Z,48.77
2023-06-04T12:32:11.327Z,50.76
2023-06-04T12:34:39.820Z,49.39
2023-06-04T12:37:07.031Z,47.83
2023-06-04T12:39:37.969Z,46.64
2023-06-04T12:42:07.937Z,49.09
2023-06-04T12:44:36.016Z,48.26
2023-06-04T12:47:03.121Z,47.43
2023-06-04T12:49:29.818Z,47.25
2023-06-04T12:51:56.692Z,47.60
2023-06-04T12:54:23.047Z,46.82
2023-06-04T12:56:50.153Z,47.93
2023-06-04T12:59:16.918Z,47.52
2023-06-04T13:01:43.525Z,48.53
2023-06-04T13:04:10.252Z,45.68
2023-06-04T13:06:38.199Z,46.72
2023-06-04T13:09:10.268Z,45.37
2023-06-04T13:11:41.283Z,47.80
2023-06-04T13:14:08.622Z,47.25
2023-06-04T13:16:35.081Z,45.93
2023-06-04T13:19:01.484Z,47.56
2023-06-04T13:21:28.139Z,47.73
2023-06-04T13:23:54.838Z,48.19
2023-06-04T13:26:21.428Z,48.71
2023-06-04T13:28:48.212Z,48.54
2023-06-04T13:31:15.104Z,49.22
2023-06-04T13:33:42.474Z,49.85
2023-06-04T13:36:08.890Z,47.66
2023-06-04T13:38:35.560Z,50.46
2023-06-04T13:41:02.053Z,50.03
2023-06-04T13:43:28.845Z,52.04
2023-06-04T13:45:55.381Z,52.56
2023-06-04T13:48:21.883Z,51.73
2023-06-04T13:50:48.213Z,50.70
2023-06-04T13:53:14.607Z,50.67
2023-06-04T13:55:41.178Z,49.06
2023-06-04T13:58:07.667Z,49.65
2023-06-04T14:00:34.922Z,49.58
2023-06-04T14:03:01.470Z,50.05
2023-06-04T14:05:30.931Z,50.81
2023-06-04T14:07:57.582Z,51.26
2023-06-04T14:10:23.982Z,52.62
2023-06-04T14:12:51.113Z,51.91
2023-06-04T14:15:18.072Z,52.13
2023-06-04T14:17:44.936Z,54.08
2023-06-04T14:20:11.445Z,53.51
2023-06-04T14:22:38.471Z,51.32
2023-06-04T14:25:07.373Z,55.07
2023-06-04T14:27:35.375Z,52.46
2023-06-04T14:30:05.912Z,54.42
2023-06-04T14:32:34.898Z,53.94
2023-06-04T14:35:01.530Z,51.94
2023-06-04T14:37:28.266Z,52.36
2023-06-04T14:39:54.908Z,54.62
2023-06-04T14:42:21.467Z,54.14
2023-06-04T14:44:47.859Z,53.24
2023-06-04T14:47:14.220Z,53.86
2023-06-04T14:49:40.617Z,55.57
2023-06-04T14:52:07.320Z,54.51
2023-06-04T14:54:34.969Z,55.42
2023-06-04T14:57:01.996Z,54.18
2023-06-04T14:59:29.161Z,50.14
2023-06-04T15:01:56.206Z,51.69
2023-06-04T15:04:23.628Z,52.70
2023-06-04T15:06:50.833Z,51.19
2023-06-04T15:09:17.527Z,52.35
2023-06-04T15:11:44.094Z,51.64
2023-06-04T15:14:10.704Z,51.35
2023-06-04T15:16:37.242Z,52.01
2023-06-04T15:19:04.202Z,51.18
2023-06-04T15:21:30.884Z,52.15
2023-06-04T15:23:57.296Z,52.85
2023-06-04T15:26:25.808Z,51.05
2023-06-04T15:28:52.138Z,52.09
2023-06-04T15:31:18.823Z,53.45
2023-06-04T15:33:45.452Z,52.69
2023-06-04T15:36:12.119Z,54.28
2023-06-04T15:38:38.534Z,51.94
2023-06-04T15:41:04.914Z,55.12
2023-06-04T15:43:31.528Z,52.77
2023-06-04T15:45:58.236Z,55.93
2023-06-04T15:48:27.543Z,53.72
2023-06-04T15:50:54.106Z,54.16
2023-06-04T15:53:20.708Z,54.67
2023-06-04T15:55:47.184Z,54.31
2023-06-04T15:58:13.831Z,54.08
2023-06-04T16:00:44.399Z,54.01
2023-06-04T16:03:11.017Z,55.35
2023-06-04T16:05:37.485Z,52.87
2023-06-04T16:08:04.553Z,51.26
2023-06-04T16:10:30.994Z,53.25
2023-06-04T16:12:57.383Z,52.98
2023-06-04T16:15:23.778Z,55.59
2023-06-04T16:17:50.334Z,55.98
2023-06-04T16:20:17.306Z,57.31
2023-06-04T16:22:44.026Z,58.55
2023-06-04T16:25:10.573Z,57.95
2023-06-04T16:27:36.962Z,61.10
2023-06-04T16:30:05.827Z,61.38
2023-06-04T16:32:32.428Z,70.52
2023-06-04T16:35:00.487Z,75.85
2023-06-04T16:37:27.450Z,84.54
2023-06-04T16:39:54.037Z,80.24
2023-06-04T16:42:20.371Z,81.88
2023-06-04T16:44:47.200Z,84.00
2023-06-04T16:47:13.641Z,83.32
2023-06-04T16:49:40.271Z,84.63
2023-06-04T16:52:08.361Z,82.87
2023-06-04T16:54:35.596Z,84.17
2023-06-04T16:57:02.271Z,86.75
2023-06-04T16:59:31.299Z,85.66
2023-06-04T17:01:58.258Z,78.83
2023-06-04T17:04:25.082Z,81.49
2023-06-04T17:06:51.590Z,75.48
2023-06-04T17:09:18.025Z,79.43
2023-06-04T17:11:44.730Z,80.44
2023-06-04T17:14:11.299Z,83.81
2023-06-04T17:16:37.765Z,86.15
2023-06-04T17:19:04.384Z,89.33
2023-06-04T17:21:31.097Z,89.02
2023-06-04T17:24:00.712Z,85.81
2023-06-04T17:26:30.234Z,83.74
2023-06-04T17:28:56.755Z,78.14
2023-06-04T17:31:24.510Z,73.34
2023-06-04T17:33:51.697Z,72.40
2023-06-04T17:36:20.784Z,72.67
2023-06-04T17:38:50.840Z,73.18
2023-06-04T17:41:17.505Z,66.45
2023-06-04T17:43:43.890Z,70.26
2023-06-04T17:46:11.064Z,67.84
2023-06-04T17:48:38.116Z,68.14
2023-06-04T17:51:07.625Z,72.27
2023-06-04T17:53:34.238Z,71.97
2023-06-04T17:56:00.693Z,70.92
2023-06-04T17:58:27.161Z,77.72
2023-06-04T18:00:53.595Z,82.46
2023-06-04T18:03:19.957Z,84.45
2023-06-04T18:05:46.345Z,84.45
2023-06-04T18:08:12.867Z,85.43
2023-06-04T18:10:39.980Z,79.52
2023-06-04T18:13:06.895Z,82.05
2023-06-04T18:15:33.507Z,84.13
2023-06-04T18:18:01.501Z,90.42
2023-06-04T18:20:28.047Z,96.90
2023-06-04T18:22:54.455Z,100.00
2023-06-04T18:25:23.216Z,100.00
2023-06-04T18:27:49.712Z,100.00
2023-06-04T18:30:17.552Z,100.00
2023-06-04T18:32:46.037Z,100.00
2023-06-04T18:35:14.724Z,100.00
2023-06-04T18:37:42.776Z,100.00
2023-06-04T18:40:12.321Z,100.00
2023-06-04T18:42:39.806Z,100.00
2023-06-04T18:45:10.061Z,100.00
2023-06-04T18:47:37.554Z,100.00
2023-06-04T18:50:04.485Z,100.00
2023-06-04T18:52:33.891Z,100.00
2023-06-04T18:55:03.968Z,100.00
2023-06-04T18:57:30.484Z,100.00
2023-06-04T18:59:56.852Z,100.00
2023-06-04T19:02:23.603Z,100.00
2023-06-04T19:04:50.910Z,100.00
2023-06-04T19:07:17.464Z,100.00
2023-06-04T19:09:43.859Z,100.00
2023-06-04T19:12:10.364Z,100.00
2023-06-04T19:14:38.215Z,100.00
2023-06-04T19:17:05.017Z,100.00
2023-06-04T19:19:31.501Z,100.00
2023-06-04T19:21:59.156Z,100.00
2023-06-04T19:24:25.870Z,100.00
2023-06-04T19:26:52.300Z,100.00
2023-06-04T19:29:19.542Z,100.00
2023-06-04T19:31:46.789Z,100.00
2023-06-04T19:34:13.438Z,100.00
2023-06-04T19:36:40.178Z,100.00
2023-06-04T19:39:07.736Z,100.00
2023-06-04T19:41:34.399Z,100.00
2023-06-04T19:44:00.890Z,100.00
2023-06-04T19:46:27.589Z,100.00
2023-06-04T19:48:54.135Z,100.00
2023-06-04T19:51:21.988Z,100.00
2023-06-04T19:53:48.478Z,100.00
2023-06-04T19:56:15.012Z,100.00
2023-06-04T19:58:41.926Z,100.00
2023-06-04T20:01:08.996Z,100.00
2023-06-04T20:03:35.793Z,100.00
2023-06-04T20:06:02.693Z,100.00
2023-06-04T20:08:29.225Z,100.00
2023-06-04T20:10:56.577Z,100.00
2023-06-04T20:13:23.227Z,100.00
2023-06-04T20:15:49.673Z,100.00
2023-06-04T20:18:16.395Z,100.00
2023-06-04T20:20:43.010Z,100.00
2023-06-04T20:23:09.363Z,100.00
2023-06-04T20:25:36.161Z,100.00
2023-06-04T20:28:02.523Z,100.00
2023-06-04T20:30:28.909Z,100.00
2023-06-04T20:32:55.820Z,100.00
2023-06-04T20:35:22.224Z,100.00
2023-06-04T20:37:49.003Z,100.00
2023-06-04T20:40:17.159Z,100.00
2023-06-04T20:42:43.524Z,100.00
2023-06-04T20:45:10.185Z,100.00
2023-06-04T20:47:36.665Z,100.00
2023-06-04T20:50:03.496Z,100.00
2023-06-04T20:52:29.956Z,100.00
2023-06-04T20:54:56.537Z,100.00
2023-06-04T20:57:22.902Z,100.00
2023-06-04T20:59:49.304Z,100.00
2023-06-04T21:02:16.052Z,100.00
2023-06-04T21:04:42.715Z,100.00
2023-06-04T21:07:09.271Z,100.00
2023-06-04T21:09:35.887Z,100.00
2023-06-04T21:12:02.374Z,100.00
2023-06-04T21:14:28.733Z,100.00
2023-06-04T21:16:55.168Z,100.00
2023-06-04T21:19:21.525Z,100.00
2023-06-04T21:21:47.910Z,100.00
2023-06-04T21:24:15.302Z,100.00
2023-06-04T21:26:41.814Z,100.00
2023-06-04T21:29:08.390Z,100.00
2023-06-04T21:31:35.315Z,100.00
2023-06-04T21:34:01.949Z,100.00
2023-06-04T21:36:28.568Z,100.00
2023-06-04T21:38:54.892Z,100.00
2023-06-04T21:41:21.475Z,100.00
2023-06-04T21:43:47.823Z,100.00
2023-06-04T21:46:14.963Z,100.00
2023-06-04T21:48:44.585Z,100.00
2023-06-04T21:51:11.200Z,100.00
2023-06-04T21:53:37.759Z,100.00
2023-06-04T21:56:04.494Z,100.00
2023-06-04T21:58:30.970Z,100.00
2023-06-04T22:00:57.508Z,100.00
2023-06-04T22:03:24.507Z,100.00
2023-06-04T22:05:51.110Z,100.00
2023-06-04T22:08:17.785Z,100.00
2023-06-04T22:10:44.359Z,100.00
2023-06-04T22:13:11.233Z,100.00
2023-06-04T22:15:37.855Z,100.00
2023-06-04T22:18:04.467Z,100.00
2023-06-04T22:20:31.194Z,100.00
2023-06-04T22:22:57.900Z,100.00
2023-06-04T22:25:24.427Z,100.00
2023-06-04T22:27:50.883Z,100.00
2023-06-04T22:30:17.590Z,100.00
2023-06-04T22:32:44.039Z,100.00
2023-06-04T22:35:10.447Z,100.00
2023-06-04T22:37:36.991Z,100.00
2023-06-04T22:40:03.951Z,100.00
2023-06-04T22:42:30.567Z,100.00
2023-06-04T22:44:57.342Z,100.00
2023-06-04T22:47:24.166Z,100.00
2023-06-04T22:49:50.702Z,100.00
2023-06-04T22:52:17.263Z,100.00
2023-06-04T22:54:43.831Z,100.00
2023-06-04T22:57:10.511Z,100.00
2023-06-04T22:59:36.839Z,100.00
2023-06-04T23:02:03.786Z,100.00
2023-06-04T23:04:31.217Z,100.00
2023-06-04T23:06:57.787Z,100.00
2023-06-04T23:09:24.384Z,100.00
2023-06-04T23:11:51.519Z,100.00
2023-06-04T23:14:18.162Z,100.00
2023-06-04T23:16:44.668Z,100.00
2023-06-04T23:19:11.162Z,100.00
2023-06-04T23:21:40.148Z,100.00
2023-06-04T23:24:08.177Z,100.00
2023-06-04T23:26:34.674Z,100.00
2023-06-04T23:29:01.095Z,100.00
2023-06-04T23:31:27.525Z,100.00
2023-06-04T23:33:53.967Z,100.00
2023-06-04T23:36:20.349Z,100.00
2023-06-04T23:38:48.117Z,100.00
2023-06-04T23:41:14.609Z,100.00
2023-06-04T23:43:40.996Z,100.00
2023-06-04T23:46:07.329Z,100.00
2023-06-04T23:48:33.910Z,100.00
2023-06-04T23:51:00.871Z,100.00
2023-06-04T23:53:27.283Z,100.00
2023-06-04T23:55:53.873Z,100.00
2023-06-04T23:58:20.272Z,100.00
